Latest Weather Observations for Maningrida Airport

IDD60801

Issued at 4:51 pm CST Friday 3 December 2021 (issued every 10 minutes, with the page automatically refreshed every 10 minutes)

About weather observations | Map of weather stations | Latest weather observations for NT | Other Formats
Station Details ID: 014405 Name: MANINGRIDA AIRPORT Lat: -12.06 Lon: 134.23 Height: 28.1 m
Data from the previous 72 hours. | See also: Recent months at Maningrida Airport
Date/Time
CST
Temp
°C
App
Temp
°C
Dew
Point
°C
Rel
Hum
%
Delta-T
°C
Wind Press
QNH
hPa
Press
MSL
hPa
Rain since
9am
mm
Dir  Spd
km/h
Gust
km/h
Spd
kts
Gust
kts
03/04:30pm 33.0 35.3 24.5 61 6.0 N 20 28 11 15 1006.2 1006.0 0.0
03/04:00pm 33.5 35.2 24.1 58 6.6 N 22 30 12 16 1005.6 1005.4 0.0
03/03:30pm 34.0 35.9 23.7 55 7.2 N 20 30 11 16 1006.1 1005.9 0.0
03/03:00pm 34.1 36.4 24.4 57 6.8 N 20 30 11 16 1006.3 1006.1 0.0
03/02:30pm 33.7 35.4 24.0 57 6.8 NNE 22 33 12 18 1006.5 1006.3 0.0
03/02:00pm 34.0 35.8 24.3 57 6.8 N 22 32 12 17 1007.0 1006.8 0.0
03/01:30pm 33.4 35.1 24.6 60 6.2 N 24 32 13 17 1007.5 1007.3 0.0
03/01:00pm 33.2 34.7 24.9 61 5.9 NNW 26 33 14 18 1007.7 1007.5 0.0
03/12:30pm 33.9 36.6 25.0 59 6.3 NNW 20 28 11 15 1008.3 1008.1 0.0
03/12:00pm 33.4 36.7 25.1 61 5.9 NNW 17 22 9 12 1008.5 1008.3 0.0
03/11:30am 33.3 35.9 23.9 58 6.6 N 17 22 9 12 1008.8 1008.6 0.0
03/11:00am 32.8 35.6 24.3 61 6.0 NNW 17 20 9 11 1009.0 1008.8 0.0
03/10:30am 32.5 36.4 24.8 64 5.4 NNW 13 19 7 10 1009.4 1009.2 0.0
03/10:00am 32.2 35.9 24.5 64 5.4 NNW 13 15 7 8 1009.6 1009.4 0.0
03/09:30am 31.2 34.9 24.6 68 4.6 NW 13 19 7 10 1009.7 1009.5 0.0
03/09:00am 31.3 36.6 24.9 69 4.5 N 6 9 3 5 1009.6 1009.4 0.0
03/08:30am 30.4 35.7 25.0 73 3.8 NNW 6 11 3 6 1009.5 1009.3 0.0
03/08:00am 30.3 36.7 24.9 73 3.8 CALM 0 0 0 0 1009.2 1009.0 0.0
03/07:30am 29.3 35.4 24.4 75 3.4 CALM 0 0 0 0 1009.3 1009.1 0.0
03/07:00am 28.5 34.4 24.1 77 3.0 CALM 0 0 0 0 1009.0 1008.8 0.0
03/06:30am 26.8 32.5 23.7 83 2.1 CALM 0 2 0 1 1008.4 1008.2 0.0
03/06:00am 26.2 30.3 23.3 84 2.0 SSE 7 9 4 5 1008.2 1008.0 0.0
03/05:30am 26.1 31.4 23.0 83 2.1 CALM 0 0 0 0 1007.9 1007.7 0.0
03/05:00am 26.1 31.4 23.0 83 2.1 CALM 0 6 0 3 1007.6 1007.4 0.0
03/04:30am 26.3 31.1 22.8 81 2.4 S 2 6 1 3 1007.3 1007.1 0.0
03/04:00am 26.5 30.3 22.8 80 2.5 S 7 11 4 6 1007.2 1007.0 0.0
03/03:30am 26.5 30.6 22.3 78 2.8 S 4 7 2 4 1007.1 1006.9 0.0
03/03:00am 26.5 30.2 22.3 78 2.8 SSW 6 9 3 5 1007.2 1007.0 0.0
03/02:30am 27.2 31.1 22.6 76 3.1 E 6 9 3 5 1007.3 1007.1 0.0
03/02:00am 27.2 30.9 22.2 74 3.4 SE 6 7 3 4 1007.5 1007.3 0.0
03/01:30am 27.1 31.9 22.1 74 3.4 CALM 0 6 0 3 1007.8 1007.6 0.0
03/01:00am 26.9 31.0 21.6 72 3.5 SSE 2 7 1 4 1008.0 1007.8 0.0
03/12:30am 27.1 30.4 21.4 71 3.8 SSE 6 7 3 4 1008.4 1008.2 0.0
03/12:00am 27.3 30.5 21.3 69 4.0 SSW 6 7 3 4 1008.6 1008.4 0.0
 
Date/Time
CST
Temp
°C
App
Temp
°C
Dew
Point
°C
Rel
Hum
%
Delta-T
°C
Wind Press
QNH
hPa
Press
MSL
hPa
Rain since
9am
mm
Dir  Spd
km/h
Gust
km/h
Spd
kts
Gust
kts
02/11:30pm 27.9 31.1 21.2 67 4.5 SE 6 7 3 4 1009.0 1008.8 0.0
02/11:00pm 28.3 30.5 21.1 65 4.8 ESE 11 13 6 7 1009.4 1009.2 0.0
02/10:30pm 28.2 31.6 22.0 69 4.2 S 7 9 4 5 1009.1 1008.9 0.0
02/10:00pm 28.4 33.0 22.4 70 4.1 S 2 9 1 5 1008.9 1008.7 0.0
02/09:30pm 28.8 33.7 22.3 68 4.4 CALM 0 4 0 2 1009.0 1008.8 0.0
02/09:00pm 29.0 32.0 22.0 66 4.7 ENE 9 11 5 6 1009.1 1008.9 0.0
02/08:30pm 29.1 32.4 22.6 68 4.4 S 9 13 5 7 1009.0 1008.8 0.0
02/08:00pm 29.5 32.7 23.0 68 4.4 ENE 11 19 6 10 1008.3 1008.1 0.0
02/07:30pm 30.5 32.7 23.9 68 4.6 ENE 19 28 10 15 1008.1 1007.9 0.0
02/07:00pm 30.9 33.2 23.5 64 5.1 ENE 17 24 9 13 1008.2 1008.0 0.0
02/06:30pm 31.1 33.6 23.2 63 5.5 NE 15 20 8 11 1007.1 1006.9 0.0
02/06:00pm 31.5 33.4 22.8 60 6.0 NE 17 32 9 17 1006.9 1006.7 0.0
02/05:30pm 31.9 33.9 22.9 59 6.2 NE 17 28 9 15 1006.4 1006.2 0.0
02/05:00pm 32.1 33.8 23.1 59 6.2 NNE 19 30 10 16 1006.2 1006.0 0.0
02/04:30pm 32.8 34.2 22.6 55 7.0 NNE 19 24 10 13 1005.7 1005.5 0.0
02/04:00pm 32.6 34.3 22.4 55 7.0 NNE 17 22 9 12 1005.6 1005.4 0.0
02/03:30pm 33.2 34.6 22.9 54 7.1 N 20 30 11 16 1006.0 1005.8 0.0
02/03:00pm 33.5 34.9 22.9 53 7.3 N 20 28 11 15 1006.2 1006.0 0.0
02/02:30pm 34.0 35.5 22.7 51 7.8 N 19 26 10 14 1006.2 1006.0 0.0
02/02:00pm 34.0 34.9 22.7 51 7.8 N 22 28 12 15 1006.5 1006.3 0.0
02/01:30pm 33.7 34.9 22.5 52 7.7 N 20 24 11 13 1006.8 1006.6 0.0
02/01:00pm 34.3 35.8 23.0 51 7.8 N 20 24 11 13 1007.3 1007.1 0.0
02/12:30pm 34.9 36.9 22.9 49 8.3 N 17 26 9 14 1007.7 1007.5 0.0
02/12:00pm 35.3 37.1 19.6 39 10.4 E 9 20 5 11 1007.9 1007.7 0.0
02/11:30am 35.9 39.1 21.3 42 9.9 W 6 9 3 5 1007.8 1007.6 0.0
02/11:00am 34.1 37.1 21.2 47 8.7 S 7 15 4 8 1008.0 1007.8 0.0
02/10:30am 33.4 36.5 21.5 49 8.1 SW 7 11 4 6 1008.2 1008.0 0.0
02/10:00am 32.7 34.9 21.9 53 7.3 SW 13 19 7 10 1008.5 1008.3 0.0
02/09:30am 32.5 35.5 22.6 56 6.8 SW 11 19 6 10 1008.7 1008.5 0.0
02/09:00am 31.3 34.3 22.6 60 6.0 SW 11 17 6 9 1008.8 1008.6 0.0
02/08:30am 30.7 34.1 23.4 65 5.0 SW 11 17 6 9 1008.7 1008.5 0.0
02/08:00am 30.2 33.9 23.9 69 4.4 SSW 11 15 6 8 1008.5 1008.3 0.0
02/07:30am 29.0 33.7 24.3 76 3.3 SSW 7 11 4 6 1008.0 1007.8 0.0
02/07:00am 27.6 32.5 24.4 83 2.2 SSW 6 9 3 5 1007.7 1007.5 0.0
02/06:30am 26.7 31.9 24.2 86 1.7 S 4 7 2 4 1007.1 1006.9 0.0
02/06:00am 26.2 31.8 24.2 89 1.4 S 2 7 1 4 1006.7 1006.5 0.0
02/05:30am 26.5 31.8 24.3 88 1.5 SSW 4 7 2 4 1006.6 1006.4 0.0
02/05:00am 26.6 31.5 24.3 87 1.6 SW 6 9 3 5 1006.3 1006.1 0.0
02/04:30am 26.6 31.5 24.3 87 1.6 SSW 6 7 3 4 1006.3 1006.1 0.0
02/04:00am 26.6 31.9 24.3 87 1.6 SSW 4 7 2 4 1006.4 1006.2 0.0
02/03:30am 26.6 31.5 24.3 87 1.6 SSW 6 9 3 5 1006.0 1005.8 0.0
02/03:00am 26.7 32.8 24.4 87 1.6 CALM 0 4 0 2 1006.2 1006.0 0.0
02/02:30am 26.8 31.8 24.5 87 1.6 SSW 6 9 3 5 1006.4 1006.2 0.0
02/02:00am 26.8 31.8 24.5 87 1.6 S 6 7 3 4 1006.9 1006.7 0.0
02/01:30am 27.1 32.2 24.6 86 1.7 S 6 7 3 4 1007.3 1007.1 0.0
02/01:00am 27.5 33.5 24.9 86 1.8 S 2 7 1 4 1007.8 1007.6 0.0
02/12:30am 27.8 33.4 24.8 84 2.1 S 4 7 2 4 1008.0 1007.8 0.0
02/12:00am 28.2 34.7 25.0 83 2.2 CALM 0 0 0 0 1008.5 1008.3 0.0
 
Date/Time
CST
Temp
°C
App
Temp
°C
Dew
Point
°C
Rel
Hum
%
Delta-T
°C
Wind Press
QNH
hPa
Press
MSL
hPa
Rain since
9am
mm
Dir  Spd
km/h
Gust
km/h
Spd
kts
Gust
kts
01/11:30pm 28.6 35.2 25.2 82 2.4 CALM 0 0 0 0 1008.5 1008.3 0.0
01/11:00pm 29.4 35.6 25.2 78 3.0 E 2 6 1 3 1008.7 1008.5 0.0
01/10:30pm 29.6 34.9 24.9 76 3.3 ENE 6 11 3 6 1008.7 1008.5 0.0
01/10:00pm 29.9 36.0 24.5 73 3.8 CALM 0 6 0 3 1008.5 1008.3 0.0
01/09:30pm 29.8 34.6 24.2 72 3.9 ENE 6 9 3 5 1008.2 1008.0 0.0
01/09:00pm 30.1 34.6 24.0 70 4.2 NE 7 11 4 6 1007.6 1007.4 0.0
01/08:30pm 30.7 35.1 24.4 69 4.4 N 9 13 5 7 1007.2 1007.0 0.0
01/08:00pm 30.8 34.2 24.0 67 4.7 N 13 17 7 9 1006.9 1006.7 0.0
01/07:30pm 31.0 34.1 23.6 64 5.1 N 13 19 7 10 1006.2 1006.0 0.0
01/07:00pm 30.9 35.3 23.8 66 4.9 N 7 13 4 7 1005.8 1005.6 0.0
01/06:30pm 31.2 34.7 23.6 64 5.3 NNE 11 17 6 9 1005.7 1005.5 0.0
01/06:00pm 31.4 34.1 23.5 63 5.5 NNE 15 22 8 12 1005.3 1005.1 0.0
01/05:30pm 31.9 34.7 23.7 62 5.7 N 15 20 8 11 1004.9 1004.7 0.0
01/05:00pm 32.3 34.2 23.5 59 6.1 N 19 24 10 13 1004.5 1004.3 0.0
01/04:30pm 32.6 35.9 23.8 59 6.1 NNE 13 17 7 9 1004.7 1004.5 0.0
01/04:00pm 33.2 35.1 23.5 56 6.7 N 19 24 10 13 1004.4 1004.2 0.0
01/03:30pm 33.1 35.2 23.7 57 6.6 N 19 26 10 14 1004.5 1004.3 0.0
01/03:00pm 33.7 35.9 24.3 58 6.6 N 20 26 11 14 1004.7 1004.5 0.0
01/02:30pm 33.0 34.6 23.3 56 6.7 N 20 24 11 13 1005.0 1004.8 0.0
01/02:00pm 33.8 36.0 23.2 54 7.3 N 17 24 9 13 1005.8 1005.6 0.0
01/01:30pm 33.0 35.2 23.3 56 6.7 NNW 17 20 9 11 1006.3 1006.1 0.0
01/01:00pm 33.8 36.7 23.2 54 7.3 NNW 13 20 7 11 1006.8 1006.6 0.0
01/12:30pm 32.9 35.4 23.8 58 6.4 NNW 17 22 9 12 1007.3 1007.1 0.0
01/12:00pm 32.7 35.3 23.3 57 6.5 N 15 20 8 11 1007.6 1007.4 0.0
01/11:30am 32.7 35.3 23.3 57 6.5 NNW 15 20 8 11 1008.2 1008.0 0.0
01/11:00am 32.5 36.3 24.0 61 5.9 N 11 19 6 10 1008.4 1008.2 0.0
01/10:30am 32.0 35.0 23.3 60 6.0 N 13 17 7 9 1008.5 1008.3 0.0
01/10:00am 32.4 36.9 23.9 61 5.9 N 7 13 4 7 1008.6 1008.4 0.0
01/09:30am 31.3 36.3 23.9 64 5.2 WNW 4 11 2 6 1008.8 1008.6 0.0
01/09:00am 31.3 36.0 23.9 64 5.2 W 6 9 3 5 1008.8 1008.6 0.0
01/08:30am 31.1 35.8 24.0 66 4.9 SW 6 9 3 5 1008.9 1008.7 0.0
01/08:00am 30.2 34.6 24.4 71 4.0 SSW 9 11 5 6 1008.8 1008.6 0.0
01/07:30am 28.8 33.7 24.4 77 3.1 SW 6 9 3 5 1008.6 1008.4 0.0
01/07:00am 27.9 32.9 24.5 82 2.4 SSW 6 9 3 5 1007.9 1007.7 0.0
01/06:30am 27.0 31.8 24.5 86 1.7 SW 7 9 4 5 1007.5 1007.3 0.0
01/06:00am 26.8 31.8 24.5 87 1.6 SSW 6 9 3 5 1007.1 1006.9 0.0
01/05:30am 26.8 31.8 24.5 87 1.6 SW 6 7 3 4 1006.7 1006.5 0.0
01/05:00am 27.0 32.0 24.5 86 1.7 SSW 6 9 3 5 1006.6 1006.4 0.0
01/04:30am 27.2 32.6 24.5 85 1.9 SSW 4 7 2 4 1006.4 1006.2 0.0
01/04:00am 27.4 32.3 24.3 83 2.1 SSW 6 7 3 4 1006.4 1006.2 0.0
01/03:30am 27.2 33.5 24.7 86 1.7 CALM 0 0 0 0 1006.2 1006.0 0.0
01/03:00am 27.3 33.4 24.4 84 2.0 CALM 0 0 0 0 - - 0.0
01/02:30am 27.8 33.9 24.4 82 2.4 CALM 0 0 0 0 1006.0 1005.8 0.0
01/02:00am 27.9 33.9 24.3 81 2.5 CALM 0 0 0 0 1006.4 1006.2 0.0
01/01:30am 28.0 34.1 24.4 81 2.5 CALM 0 0 0 0 1006.7 1006.5 0.0
01/01:00am 28.2 34.3 24.4 80 2.6 CALM 0 0 0 0 1006.9 1006.7 0.0
01/12:30am 28.7 34.8 24.5 78 2.9 CALM 0 0 0 0 1007.1 1006.9 0.0
01/12:00am 28.9 34.9 24.2 76 3.3 CALM 0 0 0 0 1007.5 1007.3 0.0
 
Date/Time
CST
Temp
°C
App
Temp
°C
Dew
Point
°C
Rel
Hum
%
Delta-T
°C
Wind Press
QNH
hPa
Press
MSL
hPa
Rain since
9am
mm
Dir  Spd
km/h
Gust
km/h
Spd
kts
Gust
kts
30/11:30pm 29.8 35.1 23.7 70 4.2 NNE 2 7 1 4 1007.6 1007.4 0.0
30/11:00pm 30.0 34.6 23.2 67 4.7 NNE 4 9 2 5 1007.8 1007.6 0.0
30/10:30pm 30.2 35.5 23.1 65 4.9 CALM 0 2 0 1 1007.8 1007.6 0.0
30/10:00pm 30.3 35.6 23.7 68 4.6 NE 2 7 1 4 1007.7 1007.5 0.0
30/09:30pm 30.1 35.1 23.8 69 4.4 NE 4 7 2 4 1007.3 1007.1 0.0
30/09:00pm 30.2 34.5 23.6 67 4.6 NE 7 11 4 6 1007.0 1006.8 0.0
30/08:30pm 30.4 34.3 23.6 67 4.7 NNE 9 13 5 7 1006.6 1006.4 0.0
30/08:00pm 30.5 34.2 23.2 65 5.0 NE 9 13 5 7 1006.3 1006.1 0.0
30/07:30pm 30.7 33.9 23.1 64 5.2 NNE 11 17 6 9 1005.8 1005.6 0.0
30/07:00pm 31.1 34.0 23.2 63 5.4 N 13 19 7 10 1005.0 1004.8 0.0
30/06:30pm 31.3 33.4 23.1 61 5.7 NNE 17 20 9 11 1004.7 1004.5 0.0
30/06:00pm 31.9 33.9 22.9 59 6.2 N 17 24 9 13 1004.4 1004.2 0.0
30/05:30pm 32.4 34.2 22.5 56 6.8 NNE 17 24 9 13 1003.9 1003.7 0.0
30/05:00pm 32.5 33.6 22.3 55 7.0 N 20 26 11 14 1003.8 1003.6 0.0

Other formats

Comma delimited format used in spreadsheet applications
http://www.bom.gov.au/fwo/IDD60801/IDD60801.95142.axf

JavaScript Object Notation format (JSON) in row-major order
http://www.bom.gov.au/fwo/IDD60801/IDD60801.95142.json

Data quality

Most of these data are generated automatically and are frequently updated. Quality checks on data are not normally performed. It is possible for incorrect values to appear. Refer to information at About Latest Weather Observations and please check the disclaimer before using these data.